LVJAM SAAR-SABE
Flight info
| Callsign | LVJAM |
|---|---|
| Flight time | N/A |
| Altitude | FL150 |
| Route | VASAL W20 MULTA W24 SNT |
| Aircraft | SW4/L-SE3/NACD1 |
Departure
| Time | N/A |
|---|---|
| Airport | Rosario Islas Malvinas International Airport (SAAR) |
Arrival
| Time | 2026-05-05 22:52 |
|---|---|
| Airport | Aeroparque Jorge Newbery (SABE) |
| Time | Latitude | Longitude | Altitude | Speed | Heading |
|---|---|---|---|---|---|
| 2026-05-05 22:21 | -33.32856 | -60.53701 | 11697 ft | 168 kts | 156° |
| 2026-05-05 22:21 | -33.33866 | -60.52986 | 11903 ft | 170 kts | 156° |
| 2026-05-05 22:21 | -33.34885 | -60.52263 | 12112 ft | 171 kts | 156° |
| 2026-05-05 22:21 | -33.35906 | -60.51537 | 12321 ft | 172 kts | 156° |
| 2026-05-05 22:22 | -33.36938 | -60.50801 | 12523 ft | 173 kts | 156° |
| 2026-05-05 22:22 | -33.37977 | -60.50058 | 12720 ft | 175 kts | 156° |
| 2026-05-05 22:22 | -33.39022 | -60.49311 | 12919 ft | 176 kts | 156° |
| 2026-05-05 22:22 | -33.40077 | -60.48555 | 13121 ft | 178 kts | 154° |
| 2026-05-05 22:23 | -33.41155 | -60.47804 | 13271 ft | 182 kts | 156° |
| 2026-05-05 22:23 | -33.42256 | -60.47055 | 13449 ft | 184 kts | 156° |
| 2026-05-05 22:23 | -33.43370 | -60.46301 | 13644 ft | 185 kts | 154° |
| 2026-05-05 22:23 | -33.44503 | -60.45537 | 13803 ft | 188 kts | 154° |
| 2026-05-05 22:24 | -33.45645 | -60.44771 | 13992 ft | 191 kts | 154° |
| 2026-05-05 22:24 | -33.46805 | -60.44001 | 14300 ft | 188 kts | 154° |
| 2026-05-05 22:24 | -33.47944 | -60.43251 | 14622 ft | 184 kts | 158° |
| 2026-05-05 22:24 | -33.49039 | -60.42463 | 14871 ft | 190 kts | 155° |
| 2026-05-05 22:25 | -33.50193 | -60.41556 | 14912 ft | 206 kts | 154° |
| 2026-05-05 22:25 | -33.51420 | -60.40592 | 14909 ft | 220 kts | 154° |
| 2026-05-05 22:25 | -33.52742 | -60.39566 | 14901 ft | 232 kts | 154° |
| 2026-05-05 22:25 | -33.54128 | -60.38501 | 14894 ft | 240 kts | 154° |
| 2026-05-05 22:26 | -33.55566 | -60.37459 | 14890 ft | 246 kts | 156° |
| 2026-05-05 22:26 | -33.57068 | -60.36420 | 14888 ft | 251 kts | 157° |
| 2026-05-05 22:26 | -33.58594 | -60.35381 | 14887 ft | 255 kts | 157° |
| 2026-05-05 22:26 | -33.60152 | -60.34328 | 14886 ft | 259 kts | 157° |
| 2026-05-05 22:27 | -33.61723 | -60.33269 | 14885 ft | 262 kts | 157° |
| 2026-05-05 22:27 | -33.63325 | -60.32193 | 14885 ft | 264 kts | 157° |
| 2026-05-05 22:27 | -33.64929 | -60.31117 | 14885 ft | 267 kts | 157° |
| 2026-05-05 22:27 | -33.66562 | -60.30025 | 14886 ft | 272 kts | 157° |
| 2026-05-05 22:28 | -33.68222 | -60.28919 | 14885 ft | 275 kts | 157° |
| 2026-05-05 22:28 | -33.69900 | -60.27783 | 14885 ft | 280 kts | 156° |
| 2026-05-05 22:28 | -33.71587 | -60.26602 | 14883 ft | 284 kts | 155° |
| 2026-05-05 22:28 | -33.73295 | -60.25395 | 14877 ft | 287 kts | 155° |
| 2026-05-05 22:29 | -33.75030 | -60.24169 | 14876 ft | 290 kts | 155° |
| 2026-05-05 22:29 | -33.76763 | -60.22948 | 14901 ft | 290 kts | 155° |
| 2026-05-05 22:29 | -33.78502 | -60.21729 | 14933 ft | 291 kts | 155° |
| 2026-05-05 22:29 | -33.80248 | -60.20509 | 14946 ft | 292 kts | 155° |
| 2026-05-05 22:30 | -33.82007 | -60.19281 | 14948 ft | 293 kts | 155° |
| 2026-05-05 22:30 | -33.83768 | -60.18053 | 14949 ft | 294 kts | 155° |
| 2026-05-05 22:30 | -33.85526 | -60.16809 | 14948 ft | 296 kts | 152° |
| 2026-05-05 22:30 | -33.87074 | -60.15153 | 14949 ft | 302 kts | 133° |
| 2026-05-05 22:31 | -33.88318 | -60.13110 | 14951 ft | 304 kts | 126° |
| 2026-05-05 22:31 | -33.89445 | -60.10962 | 14949 ft | 305 kts | 123° |
| 2026-05-05 22:31 | -33.90535 | -60.08775 | 14947 ft | 306 kts | 122° |
| 2026-05-05 22:31 | -33.91618 | -60.06562 | 14946 ft | 306 kts | 122° |
| 2026-05-05 22:32 | -33.92691 | -60.04358 | 14946 ft | 307 kts | 122° |
| 2026-05-05 22:32 | -33.93769 | -60.02139 | 14951 ft | 307 kts | 122° |
| 2026-05-05 22:32 | -33.94850 | -59.99919 | 14954 ft | 307 kts | 122° |
| 2026-05-05 22:32 | -33.95931 | -59.97711 | 14962 ft | 307 kts | 122° |
| 2026-05-05 22:33 | -33.96996 | -59.95552 | 14966 ft | 308 kts | 122° |
| 2026-05-05 22:33 | -33.98115 | -59.93286 | 14967 ft | 308 kts | 122° |
| 2026-05-05 22:33 | -33.99211 | -59.91068 | 14967 ft | 309 kts | 122° |
| 2026-05-05 22:33 | -34.00303 | -59.88856 | 14967 ft | 309 kts | 122° |
| 2026-05-05 22:34 | -34.01405 | -59.86624 | 14967 ft | 309 kts | 122° |
| 2026-05-05 22:34 | -34.02495 | -59.84412 | 14966 ft | 310 kts | 122° |
| 2026-05-05 22:34 | -34.03593 | -59.82182 | 14965 ft | 310 kts | 122° |
| 2026-05-05 22:34 | -34.04695 | -59.79941 | 14964 ft | 310 kts | 122° |
| 2026-05-05 22:35 | -34.05786 | -59.77717 | 14963 ft | 310 kts | 122° |
| 2026-05-05 22:35 | -34.06883 | -59.75481 | 14964 ft | 310 kts | 122° |
| 2026-05-05 22:35 | -34.07978 | -59.73249 | 14966 ft | 310 kts | 122° |
| 2026-05-05 22:35 | -34.09074 | -59.71020 | 14937 ft | 311 kts | 122° |
| 2026-05-05 22:36 | -34.10202 | -59.68729 | 14472 ft | 326 kts | 122° |
| 2026-05-05 22:36 | -34.11391 | -59.66350 | 14029 ft | 336 kts | 120° |
| 2026-05-05 22:36 | -34.12664 | -59.63965 | 13584 ft | 343 kts | 121° |
| 2026-05-05 22:36 | -34.13990 | -59.61540 | 13134 ft | 347 kts | 122° |
| 2026-05-05 22:37 | -34.15323 | -59.59108 | 12684 ft | 347 kts | 122° |
| 2026-05-05 22:37 | -34.16645 | -59.56685 | 12237 ft | 348 kts | 122° |
| 2026-05-05 22:37 | -34.17962 | -59.54252 | 11789 ft | 347 kts | 122° |
| 2026-05-05 22:37 | -34.19274 | -59.51810 | 11339 ft | 346 kts | 122° |
| 2026-05-05 22:38 | -34.20572 | -59.49374 | 10889 ft | 344 kts | 122° |
| 2026-05-05 22:38 | -34.21857 | -59.46945 | 10439 ft | 342 kts | 122° |
| 2026-05-05 22:38 | -34.23110 | -59.44559 | 10096 ft | 333 kts | 122° |
| 2026-05-05 22:38 | -34.24159 | -59.42133 | 9999 ft | 318 kts | 110° |
| 2026-05-05 22:39 | -34.24811 | -59.39639 | 9972 ft | 305 kts | 103° |
| 2026-05-05 22:39 | -34.25298 | -59.37209 | 9965 ft | 294 kts | 101° |
| 2026-05-05 22:39 | -34.25722 | -59.34842 | 9960 ft | 286 kts | 100° |
| 2026-05-05 22:39 | -34.26130 | -59.32470 | 9556 ft | 294 kts | 100° |
| 2026-05-05 22:40 | -34.26544 | -59.30011 | 9109 ft | 302 kts | 100° |
| 2026-05-05 22:40 | -34.26960 | -59.27515 | 8662 ft | 307 kts | 100° |
| 2026-05-05 22:40 | -34.27382 | -59.24969 | 8213 ft | 310 kts | 100° |
| 2026-05-05 22:40 | -34.27798 | -59.22404 | 7766 ft | 312 kts | 100° |
| 2026-05-05 22:41 | -34.28211 | -59.19826 | 7318 ft | 314 kts | 99° |
| 2026-05-05 22:41 | -34.28620 | -59.17243 | 6869 ft | 314 kts | 100° |
| 2026-05-05 22:41 | -34.29033 | -59.14651 | 6420 ft | 314 kts | 100° |
| 2026-05-05 22:41 | -34.29436 | -59.12078 | 6090 ft | 310 kts | 100° |
| 2026-05-05 22:42 | -34.29821 | -59.09548 | 5998 ft | 299 kts | 99° |
| 2026-05-05 22:42 | -34.30191 | -59.07134 | 5969 ft | 289 kts | 99° |
| 2026-05-05 22:42 | -34.30553 | -59.04783 | 5963 ft | 281 kts | 99° |
| 2026-05-05 22:42 | -34.30907 | -59.02489 | 5962 ft | 274 kts | 99° |
| 2026-05-05 22:43 | -34.31251 | -59.00250 | 5962 ft | 270 kts | 99° |
| 2026-05-05 22:43 | -34.31590 | -58.98040 | 5963 ft | 266 kts | 99° |
| 2026-05-05 22:43 | -34.31924 | -58.95854 | 5963 ft | 263 kts | 99° |
| 2026-05-05 22:43 | -34.32253 | -58.93699 | 5963 ft | 261 kts | 99° |
| 2026-05-05 22:44 | -34.32583 | -58.91540 | 5964 ft | 259 kts | 99° |
| 2026-05-05 22:44 | -34.32906 | -58.89409 | 5963 ft | 258 kts | 99° |
| 2026-05-05 22:44 | -34.33230 | -58.87286 | 5964 ft | 257 kts | 99° |
| 2026-05-05 22:44 | -34.33554 | -58.85166 | 5964 ft | 257 kts | 99° |
| 2026-05-05 22:45 | -34.33876 | -58.83059 | 5965 ft | 256 kts | 99° |
| 2026-05-05 22:45 | -34.34197 | -58.80942 | 5964 ft | 256 kts | 99° |
| 2026-05-05 22:45 | -34.34517 | -58.78818 | 5964 ft | 256 kts | 99° |
| 2026-05-05 22:45 | -34.34835 | -58.76712 | 5963 ft | 255 kts | 99° |
| 2026-05-05 22:46 | -34.35152 | -58.74608 | 5963 ft | 255 kts | 99° |
| 2026-05-05 22:46 | -34.35468 | -58.72501 | 5963 ft | 255 kts | 99° |
| 2026-05-05 22:46 | -34.35788 | -58.70390 | 5963 ft | 255 kts | 101° |
| 2026-05-05 22:46 | -34.36415 | -58.68399 | 5958 ft | 255 kts | 124° |
| 2026-05-05 22:47 | -34.37578 | -58.66810 | 5944 ft | 254 kts | 139° |
| 2026-05-05 22:47 | -34.38947 | -58.65363 | 5512 ft | 270 kts | 143° |
| 2026-05-05 22:47 | -34.40439 | -58.63896 | 5066 ft | 281 kts | 144° |
| 2026-05-05 22:47 | -34.41988 | -58.62398 | 4620 ft | 289 kts | 144° |
| 2026-05-05 22:48 | -34.43570 | -58.60874 | 4175 ft | 294 kts | 144° |
| 2026-05-05 22:48 | -34.45183 | -58.59323 | 3726 ft | 297 kts | 144° |
| 2026-05-05 22:48 | -34.46801 | -58.57764 | 3279 ft | 298 kts | 144° |
| 2026-05-05 22:48 | -34.48371 | -58.56246 | 3055 ft | 277 kts | 144° |
| 2026-05-05 22:49 | -34.49794 | -58.54852 | 2990 ft | 248 kts | 144° |
| 2026-05-05 22:49 | -34.50931 | -58.53484 | 3030 ft | 210 kts | 123° |
| 2026-05-05 22:49 | -34.51463 | -58.51994 | 2898 ft | 184 kts | 112° |
| 2026-05-05 22:49 | -34.51928 | -58.50560 | 2384 ft | 184 kts | 115° |
| 2026-05-05 22:50 | -34.52341 | -58.49150 | 1915 ft | 171 kts | 105° |
| 2026-05-05 22:50 | -34.52690 | -58.47826 | 1522 ft | 164 kts | 105° |
| 2026-05-05 22:50 | -34.53068 | -58.46556 | 1130 ft | 160 kts | 117° |
| 2026-05-05 22:50 | -34.53691 | -58.45432 | 696 ft | 159 kts | 129° |
| 2026-05-05 22:51 | -34.54375 | -58.44539 | 495 ft | 145 kts | 126° |
| 2026-05-05 22:51 | -34.54882 | -58.43487 | 244 ft | 143 kts | 116° |
| 2026-05-05 22:51 | -34.55402 | -58.42502 | 39 ft | 135 kts | 122° |
| 2026-05-05 22:51 | -34.55840 | -58.41734 | 24 ft | 91 kts | 123° |
| 2026-05-05 22:52 | -34.56049 | -58.41387 | 23 ft | 0 kts | 248° |
| 2026-05-05 22:52 | -34.56081 | -58.41428 | 23 ft | 13 kts | 224° |
| 2026-05-05 22:52 | -34.56089 | -58.41437 | 23 ft | 12 kts | 224° |
| 2026-05-05 22:52 | -34.56093 | -58.41442 | 23 ft | 11 kts | 224° |
| 2026-05-05 22:53 | -34.56101 | -58.41452 | 23 ft | 0 kts | 223° |